sensor_id;sensor_type;location;lat;lon;timestamp;P1;durP1;ratioP1;P2;durP2;ratioP2
72354;SDS011;60314;55.040;73.076;2023-05-10T00:02:24;42.35;;;21.83;;
72354;SDS011;60314;55.040;73.076;2023-05-10T00:07:44;42.22;;;22.63;;
72354;SDS011;60314;55.040;73.076;2023-05-10T00:13:04;34.75;;;18.65;;
72354;SDS011;60314;55.040;73.076;2023-05-10T00:18:24;40.88;;;21.90;;
72354;SDS011;60314;55.040;73.076;2023-05-10T00:23:44;41.92;;;23.73;;
72354;SDS011;60314;55.040;73.076;2023-05-10T00:29:03;44.95;;;23.15;;
72354;SDS011;60314;55.040;73.076;2023-05-10T00:34:24;47.63;;;23.40;;
72354;SDS011;60314;55.040;73.076;2023-05-10T00:39:43;39.33;;;22.85;;
72354;SDS011;60314;55.040;73.076;2023-05-10T00:45:04;41.40;;;23.33;;
72354;SDS011;60314;55.040;73.076;2023-05-10T00:50:24;37.40;;;23.88;;
72354;SDS011;60314;55.040;73.076;2023-05-10T00:55:26;40.47;;;23.17;;
72354;SDS011;60314;55.040;73.076;2023-05-10T01:00:47;43.92;;;23.35;;
72354;SDS011;60314;55.040;73.076;2023-05-10T01:06:07;37.35;;;22.63;;
72354;SDS011;60314;55.040;73.076;2023-05-10T01:11:29;39.92;;;22.15;;
72354;SDS011;60314;55.040;73.076;2023-05-10T01:16:49;40.58;;;21.38;;
72354;SDS011;60314;55.040;73.076;2023-05-10T01:39:51;36.60;;;21.75;;
72354;SDS011;60314;55.040;73.076;2023-05-10T01:45:24;38.90;;;21.75;;
72354;SDS011;60314;55.040;73.076;2023-05-10T01:50:56;35.85;;;22.45;;
72354;SDS011;60314;55.040;73.076;2023-05-10T01:56:04;33.97;;;22.00;;
72354;SDS011;60314;55.040;73.076;2023-05-10T02:01:08;33.90;;;21.60;;
72354;SDS011;60314;55.040;73.076;2023-05-10T02:06:29;38.47;;;21.88;;
72354;SDS011;60314;55.040;73.076;2023-05-10T02:11:51;33.17;;;20.33;;
72354;SDS011;60314;55.040;73.076;2023-05-10T02:17:13;33.45;;;20.17;;
72354;SDS011;60314;55.040;73.076;2023-05-10T02:22:35;26.47;;;19.77;;
72354;SDS011;60314;55.040;73.076;2023-05-10T02:27:56;26.15;;;20.42;;
72354;SDS011;60314;55.040;73.076;2023-05-10T02:33:19;30.27;;;21.33;;
72354;SDS011;60314;55.040;73.076;2023-05-10T02:38:42;33.33;;;21.37;;
72354;SDS011;60314;55.040;73.076;2023-05-10T02:44:03;29.40;;;20.40;;
72354;SDS011;60314;55.040;73.076;2023-05-10T02:49:27;28.38;;;20.20;;
72354;SDS011;60314;55.040;73.076;2023-05-10T02:54:49;31.20;;;19.57;;
72354;SDS011;60314;55.040;73.076;2023-05-10T03:05:51;31.90;;;20.92;;
72354;SDS011;60314;55.040;73.076;2023-05-10T03:16:40;29.52;;;20.15;;
72354;SDS011;60314;55.040;73.076;2023-05-10T03:22:10;28.88;;;20.35;;
72354;SDS011;60314;55.040;73.076;2023-05-10T03:27:32;31.48;;;21.13;;
72354;SDS011;60314;55.040;73.076;2023-05-10T03:32:53;30.50;;;20.80;;
72354;SDS011;60314;55.040;73.076;2023-05-10T03:38:13;26.42;;;19.45;;
72354;SDS011;60314;55.040;73.076;2023-05-10T03:43:33;33.50;;;20.55;;
72354;SDS011;60314;55.040;73.076;2023-05-10T03:48:53;28.77;;;19.98;;
72354;SDS011;60314;55.040;73.076;2023-05-10T03:54:13;30.80;;;19.77;;
72354;SDS011;60314;55.040;73.076;2023-05-10T03:59:34;29.88;;;18.80;;
72354;SDS011;60314;55.040;73.076;2023-05-10T04:04:54;27.30;;;18.10;;
72354;SDS011;60314;55.040;73.076;2023-05-10T04:10:14;34.30;;;19.17;;
72354;SDS011;60314;55.040;73.076;2023-05-10T04:15:16;39.00;;;18.45;;
72354;SDS011;60314;55.040;73.076;2023-05-10T04:20:18;34.63;;;19.20;;
72354;SDS011;60314;55.040;73.076;2023-05-10T04:25:19;49.57;;;19.93;;
72354;SDS011;60314;55.040;73.076;2023-05-10T04:30:40;42.25;;;19.63;;
72354;SDS011;60314;55.040;73.076;2023-05-10T04:35:59;42.10;;;18.73;;
72354;SDS011;60314;55.040;73.076;2023-05-10T04:41:19;37.85;;;16.20;;
72354;SDS011;60314;55.040;73.076;2023-05-10T04:46:39;36.50;;;16.70;;
72354;SDS011;60314;55.040;73.076;2023-05-10T04:52:00;34.50;;;17.08;;
72354;SDS011;60314;55.040;73.076;2023-05-10T04:57:19;28.17;;;15.15;;
72354;SDS011;60314;55.040;73.076;2023-05-10T05:02:44;25.70;;;13.88;;
72354;SDS011;60314;55.040;73.076;2023-05-10T05:08:05;30.13;;;14.90;;
72354;SDS011;60314;55.040;73.076;2023-05-10T05:13:25;35.10;;;14.60;;
72354;SDS011;60314;55.040;73.076;2023-05-10T05:18:45;29.33;;;15.40;;
72354;SDS011;60314;55.040;73.076;2023-05-10T05:29:07;31.42;;;13.98;;
72354;SDS011;60314;55.040;73.076;2023-05-10T05:34:08;24.70;;;14.63;;
72354;SDS011;60314;55.040;73.076;2023-05-10T05:39:28;31.67;;;14.45;;
72354;SDS011;60314;55.040;73.076;2023-05-10T05:44:49;25.20;;;14.00;;
72354;SDS011;60314;55.040;73.076;2023-05-10T05:50:09;25.67;;;14.07;;
72354;SDS011;60314;55.040;73.076;2023-05-10T05:55:29;24.80;;;14.35;;
72354;SDS011;60314;55.040;73.076;2023-05-10T06:00:50;21.83;;;13.52;;
72354;SDS011;60314;55.040;73.076;2023-05-10T06:06:11;25.58;;;14.20;;
72354;SDS011;60314;55.040;73.076;2023-05-10T06:11:32;20.60;;;13.98;;
72354;SDS011;60314;55.040;73.076;2023-05-10T06:16:52;31.48;;;14.18;;
72354;SDS011;60314;55.040;73.076;2023-05-10T06:22:15;29.00;;;14.20;;
72354;SDS011;60314;55.040;73.076;2023-05-10T06:27:35;26.87;;;13.57;;
72354;SDS011;60314;55.040;73.076;2023-05-10T06:32:55;25.73;;;13.70;;
72354;SDS011;60314;55.040;73.076;2023-05-10T06:37:57;26.60;;;14.32;;
72354;SDS011;60314;55.040;73.076;2023-05-10T06:43:17;23.13;;;13.52;;
72354;SDS011;60314;55.040;73.076;2023-05-10T06:48:37;23.07;;;13.00;;
72354;SDS011;60314;55.040;73.076;2023-05-10T06:53:57;16.77;;;12.50;;
72354;SDS011;60314;55.040;73.076;2023-05-10T06:59:17;20.58;;;13.05;;
72354;SDS011;60314;55.040;73.076;2023-05-10T07:04:39;20.27;;;12.57;;
72354;SDS011;60314;55.040;73.076;2023-05-10T07:09:59;20.02;;;12.55;;
72354;SDS011;60314;55.040;73.076;2023-05-10T07:15:19;18.33;;;12.45;;
72354;SDS011;60314;55.040;73.076;2023-05-10T07:20:49;14.93;;;11.38;;
72354;SDS011;60314;55.040;73.076;2023-05-10T07:26:09;14.37;;;11.97;;
72354;SDS011;60314;55.040;73.076;2023-05-10T07:31:31;16.45;;;13.07;;
72354;SDS011;60314;55.040;73.076;2023-05-10T07:36:51;18.27;;;12.03;;
72354;SDS011;60314;55.040;73.076;2023-05-10T07:41:53;17.42;;;12.60;;
72354;SDS011;60314;55.040;73.076;2023-05-10T07:46:55;20.60;;;15.27;;
72354;SDS011;60314;55.040;73.076;2023-05-10T07:52:24;16.50;;;13.15;;
72354;SDS011;60314;55.040;73.076;2023-05-10T07:58:27;18.17;;;12.30;;
72354;SDS011;60314;55.040;73.076;2023-05-10T08:03:56;22.55;;;16.05;;
72354;SDS011;60314;55.040;73.076;2023-05-10T08:09:43;25.05;;;14.18;;
72354;SDS011;60314;55.040;73.076;2023-05-10T08:22:08;34.40;;;17.75;;
72354;SDS011;60314;55.040;73.076;2023-05-10T08:28:03;27.70;;;18.17;;
72354;SDS011;60314;55.040;73.076;2023-05-10T08:33:23;24.65;;;14.35;;
72354;SDS011;60314;55.040;73.076;2023-05-10T08:38:43;20.73;;;13.10;;
72354;SDS011;60314;55.040;73.076;2023-05-10T08:44:03;25.52;;;14.35;;
72354;SDS011;60314;55.040;73.076;2023-05-10T08:49:06;25.20;;;13.85;;
72354;SDS011;60314;55.040;73.076;2023-05-10T08:54:28;20.63;;;13.00;;
72354;SDS011;60314;55.040;73.076;2023-05-10T08:59:49;18.77;;;10.40;;
72354;SDS011;60314;55.040;73.076;2023-05-10T09:05:09;19.67;;;11.50;;
72354;SDS011;60314;55.040;73.076;2023-05-10T09:10:30;18.64;;;11.19;;
72354;SDS011;60314;55.040;73.076;2023-05-10T09:15:51;15.05;;;10.50;;
72354;SDS011;60314;55.040;73.076;2023-05-10T09:24:04;18.67;;;10.30;;
72354;SDS011;60314;55.040;73.076;2023-05-10T09:29:26;20.00;;;10.38;;
72354;SDS011;60314;55.040;73.076;2023-05-10T09:34:57;18.02;;;10.75;;
72354;SDS011;60314;55.040;73.076;2023-05-10T09:40:26;21.20;;;10.73;;
72354;SDS011;60314;55.040;73.076;2023-05-10T09:45:52;20.33;;;11.02;;
72354;SDS011;60314;55.040;73.076;2023-05-10T09:50:57;16.40;;;9.47;;
72354;SDS011;60314;55.040;73.076;2023-05-10T09:55:59;20.58;;;8.75;;
72354;SDS011;60314;55.040;73.076;2023-05-10T10:01:01;12.68;;;7.97;;
72354;SDS011;60314;55.040;73.076;2023-05-10T10:06:21;17.90;;;8.52;;
72354;SDS011;60314;55.040;73.076;2023-05-10T10:11:41;18.17;;;9.00;;
72354;SDS011;60314;55.040;73.076;2023-05-10T10:17:01;15.45;;;8.93;;
72354;SDS011;60314;55.040;73.076;2023-05-10T10:22:21;17.52;;;8.98;;
72354;SDS011;60314;55.040;73.076;2023-05-10T10:39:00;18.47;;;8.47;;
72354;SDS011;60314;55.040;73.076;2023-05-10T10:55:20;17.08;;;8.02;;
72354;SDS011;60314;55.040;73.076;2023-05-10T11:00:45;22.35;;;7.80;;
72354;SDS011;60314;55.040;73.076;2023-05-10T11:05:47;20.15;;;8.20;;
72354;SDS011;60314;55.040;73.076;2023-05-10T11:11:08;14.60;;;7.45;;
72354;SDS011;60314;55.040;73.076;2023-05-10T11:16:28;15.18;;;7.43;;
72354;SDS011;60314;55.040;73.076;2023-05-10T11:27:23;13.88;;;7.30;;
72354;SDS011;60314;55.040;73.076;2023-05-10T11:32:43;15.13;;;7.07;;
72354;SDS011;60314;55.040;73.076;2023-05-10T11:38:09;13.45;;;6.40;;
72354;SDS011;60314;55.040;73.076;2023-05-10T11:43:30;14.13;;;6.45;;
72354;SDS011;60314;55.040;73.076;2023-05-10T11:48:53;17.20;;;7.18;;
72354;SDS011;60314;55.040;73.076;2023-05-10T11:54:16;14.77;;;6.20;;
72354;SDS011;60314;55.040;73.076;2023-05-10T11:59:36;15.88;;;6.60;;
72354;SDS011;60314;55.040;73.076;2023-05-10T12:04:56;12.18;;;5.05;;
72354;SDS011;60314;55.040;73.076;2023-05-10T12:10:08;19.00;;;5.47;;
72354;SDS011;60314;55.040;73.076;2023-05-10T12:15:36;11.13;;;5.43;;
72354;SDS011;60314;55.040;73.076;2023-05-10T12:21:02;9.80;;;4.90;;
72354;SDS011;60314;55.040;73.076;2023-05-10T12:26:22;13.57;;;5.28;;
72354;SDS011;60314;55.040;73.076;2023-05-10T12:37:14;11.43;;;5.47;;
72354;SDS011;60314;55.040;73.076;2023-05-10T12:42:34;12.02;;;5.43;;
72354;SDS011;60314;55.040;73.076;2023-05-10T12:47:57;11.75;;;4.68;;
72354;SDS011;60314;55.040;73.076;2023-05-10T12:53:17;14.75;;;5.65;;
72354;SDS011;60314;55.040;73.076;2023-05-10T12:58:37;11.93;;;4.95;;
72354;SDS011;60314;55.040;73.076;2023-05-10T13:03:57;15.85;;;5.90;;
72354;SDS011;60314;55.040;73.076;2023-05-10T13:09:19;17.85;;;6.18;;
72354;SDS011;60314;55.040;73.076;2023-05-10T13:14:21;19.40;;;8.57;;
72354;SDS011;60314;55.040;73.076;2023-05-10T13:19:41;17.13;;;9.02;;
72354;SDS011;60314;55.040;73.076;2023-05-10T13:25:01;24.23;;;7.88;;
72354;SDS011;60314;55.040;73.076;2023-05-10T13:30:22;18.65;;;6.80;;
72354;SDS011;60314;55.040;73.076;2023-05-10T13:35:43;15.93;;;6.57;;
72354;SDS011;60314;55.040;73.076;2023-05-10T13:41:04;26.00;;;9.98;;
72354;SDS011;60314;55.040;73.076;2023-05-10T13:46:24;16.52;;;7.55;;
72354;SDS011;60314;55.040;73.076;2023-05-10T13:51:45;21.88;;;7.35;;
72354;SDS011;60314;55.040;73.076;2023-05-10T13:57:05;19.83;;;8.68;;
72354;SDS011;60314;55.040;73.076;2023-05-10T14:02:26;15.73;;;7.25;;
72354;SDS011;60314;55.040;73.076;2023-05-10T14:07:46;12.30;;;6.20;;
72354;SDS011;60314;55.040;73.076;2023-05-10T14:13:06;14.45;;;6.00;;
72354;SDS011;60314;55.040;73.076;2023-05-10T14:18:08;13.02;;;6.05;;
72354;SDS011;60314;55.040;73.076;2023-05-10T14:23:28;13.57;;;6.47;;
72354;SDS011;60314;55.040;73.076;2023-05-10T14:28:48;20.77;;;6.82;;
72354;SDS011;60314;55.040;73.076;2023-05-10T14:34:09;26.60;;;11.55;;
72354;SDS011;60314;55.040;73.076;2023-05-10T14:39:29;30.33;;;13.55;;
72354;SDS011;60314;55.040;73.076;2023-05-10T14:44:49;19.60;;;8.98;;
72354;SDS011;60314;55.040;73.076;2023-05-10T14:50:10;18.92;;;8.70;;
72354;SDS011;60314;55.040;73.076;2023-05-10T14:55:31;26.00;;;10.18;;
72354;SDS011;60314;55.040;73.076;2023-05-10T15:00:51;22.25;;;8.65;;
72354;SDS011;60314;55.040;73.076;2023-05-10T15:06:13;24.90;;;8.77;;
72354;SDS011;60314;55.040;73.076;2023-05-10T15:11:35;27.33;;;7.90;;
72354;SDS011;60314;55.040;73.076;2023-05-10T15:16:55;24.48;;;7.70;;
72354;SDS011;60314;55.040;73.076;2023-05-10T15:21:56;22.23;;;7.82;;
72354;SDS011;60314;55.040;73.076;2023-05-10T15:26:58;22.85;;;6.85;;
72354;SDS011;60314;55.040;73.076;2023-05-10T15:32:17;15.38;;;7.35;;
72354;SDS011;60314;55.040;73.076;2023-05-10T15:37:38;23.35;;;9.07;;
72354;SDS011;60314;55.040;73.076;2023-05-10T15:42:58;16.10;;;7.90;;
72354;SDS011;60314;55.040;73.076;2023-05-10T15:48:18;18.83;;;8.45;;
72354;SDS011;60314;55.040;73.076;2023-05-10T15:53:38;21.50;;;8.70;;
72354;SDS011;60314;55.040;73.076;2023-05-10T15:58:58;25.25;;;10.25;;
72354;SDS011;60314;55.040;73.076;2023-05-10T16:04:18;32.45;;;12.27;;
72354;SDS011;60314;55.040;73.076;2023-05-10T16:09:38;32.03;;;11.93;;
72354;SDS011;60314;55.040;73.076;2023-05-10T16:14:57;25.75;;;10.38;;
72354;SDS011;60314;55.040;73.076;2023-05-10T16:20:17;26.20;;;10.10;;
72354;SDS011;60314;55.040;73.076;2023-05-10T16:25:37;22.52;;;8.88;;
72354;SDS011;60314;55.040;73.076;2023-05-10T16:30:38;22.98;;;7.00;;
72354;SDS011;60314;55.040;73.076;2023-05-10T16:35:58;12.55;;;5.22;;
72354;SDS011;60314;55.040;73.076;2023-05-10T16:41:18;13.48;;;5.30;;
72354;SDS011;60314;55.040;73.076;2023-05-10T16:46:39;19.67;;;5.45;;
72354;SDS011;60314;55.040;73.076;2023-05-10T16:51:59;12.43;;;5.05;;
72354;SDS011;60314;55.040;73.076;2023-05-10T16:57:20;8.85;;;5.45;;
72354;SDS011;60314;55.040;73.076;2023-05-10T17:02:40;17.45;;;5.93;;
72354;SDS011;60314;55.040;73.076;2023-05-10T17:08:00;11.77;;;5.13;;
72354;SDS011;60314;55.040;73.076;2023-05-10T17:13:20;12.43;;;5.50;;
72354;SDS011;60314;55.040;73.076;2023-05-10T17:18:40;13.82;;;5.75;;
72354;SDS011;60314;55.040;73.076;2023-05-10T17:24:00;11.30;;;5.20;;
72354;SDS011;60314;55.040;73.076;2023-05-10T17:29:20;13.82;;;5.22;;
72354;SDS011;60314;55.040;73.076;2023-05-10T17:34:22;11.88;;;5.60;;
72354;SDS011;60314;55.040;73.076;2023-05-10T17:39:42;11.07;;;5.57;;
72354;SDS011;60314;55.040;73.076;2023-05-10T17:45:04;10.15;;;5.30;;
72354;SDS011;60314;55.040;73.076;2023-05-10T17:50:25;12.95;;;5.55;;
72354;SDS011;60314;55.040;73.076;2023-05-10T17:55:45;9.98;;;5.55;;
72354;SDS011;60314;55.040;73.076;2023-05-10T18:01:05;15.35;;;4.78;;
72354;SDS011;60314;55.040;73.076;2023-05-10T18:06:25;8.52;;;5.00;;
72354;SDS011;60314;55.040;73.076;2023-05-10T18:11:45;8.60;;;4.47;;
72354;SDS011;60314;55.040;73.076;2023-05-10T18:17:05;8.25;;;4.63;;
72354;SDS011;60314;55.040;73.076;2023-05-10T18:22:25;11.98;;;5.18;;
72354;SDS011;60314;55.040;73.076;2023-05-10T18:27:45;8.68;;;5.15;;
72354;SDS011;60314;55.040;73.076;2023-05-10T18:33:06;10.05;;;5.35;;
72354;SDS011;60314;55.040;73.076;2023-05-10T18:38:08;11.60;;;5.63;;
72354;SDS011;60314;55.040;73.076;2023-05-10T18:43:09;12.80;;;5.28;;
72354;SDS011;60314;55.040;73.076;2023-05-10T18:48:29;15.55;;;5.90;;
72354;SDS011;60314;55.040;73.076;2023-05-10T18:53:49;9.25;;;5.50;;
72354;SDS011;60314;55.040;73.076;2023-05-10T18:59:10;12.57;;;5.60;;
72354;SDS011;60314;55.040;73.076;2023-05-10T19:04:30;12.95;;;6.03;;
72354;SDS011;60314;55.040;73.076;2023-05-10T19:09:51;12.98;;;5.90;;
72354;SDS011;60314;55.040;73.076;2023-05-10T19:15:11;11.73;;;5.70;;
72354;SDS011;60314;55.040;73.076;2023-05-10T19:20:31;11.48;;;6.93;;
72354;SDS011;60314;55.040;73.076;2023-05-10T19:25:51;13.02;;;6.50;;
72354;SDS011;60314;55.040;73.076;2023-05-10T19:31:10;13.18;;;6.22;;
72354;SDS011;60314;55.040;73.076;2023-05-10T19:36:30;18.65;;;6.43;;
72354;SDS011;60314;55.040;73.076;2023-05-10T19:41:51;12.93;;;6.03;;
72354;SDS011;60314;55.040;73.076;2023-05-10T19:46:52;13.07;;;6.25;;
72354;SDS011;60314;55.040;73.076;2023-05-10T19:51:53;12.25;;;6.70;;
72354;SDS011;60314;55.040;73.076;2023-05-10T19:57:13;11.48;;;7.05;;
72354;SDS011;60314;55.040;73.076;2023-05-10T20:02:33;13.68;;;7.88;;
72354;SDS011;60314;55.040;73.076;2023-05-10T20:07:53;14.25;;;7.63;;
72354;SDS011;60314;55.040;73.076;2023-05-10T20:13:13;12.90;;;8.20;;
72354;SDS011;60314;55.040;73.076;2023-05-10T20:18:33;14.88;;;8.70;;
72354;SDS011;60314;55.040;73.076;2023-05-10T20:23:52;16.88;;;8.32;;
72354;SDS011;60314;55.040;73.076;2023-05-10T20:29:12;19.17;;;8.90;;
72354;SDS011;60314;55.040;73.076;2023-05-10T20:34:33;15.32;;;7.45;;
72354;SDS011;60314;55.040;73.076;2023-05-10T20:39:53;15.38;;;9.00;;
72354;SDS011;60314;55.040;73.076;2023-05-10T20:45:17;13.88;;;9.30;;
72354;SDS011;60314;55.040;73.076;2023-05-10T20:50:37;18.70;;;10.65;;
72354;SDS011;60314;55.040;73.076;2023-05-10T20:55:38;20.80;;;12.50;;
72354;SDS011;60314;55.040;73.076;2023-05-10T21:00:59;28.40;;;15.20;;
72354;SDS011;60314;55.040;73.076;2023-05-10T21:06:20;33.30;;;17.97;;
72354;SDS011;60314;55.040;73.076;2023-05-10T21:11:40;33.70;;;16.70;;
72354;SDS011;60314;55.040;73.076;2023-05-10T21:17:00;25.63;;;15.73;;
72354;SDS011;60314;55.040;73.076;2023-05-10T21:22:19;25.10;;;13.80;;
72354;SDS011;60314;55.040;73.076;2023-05-10T21:27:39;20.83;;;11.85;;
72354;SDS011;60314;55.040;73.076;2023-05-10T21:32:59;20.13;;;10.68;;
72354;SDS011;60314;55.040;73.076;2023-05-10T21:38:21;14.77;;;8.77;;
72354;SDS011;60314;55.040;73.076;2023-05-10T21:43:41;16.55;;;9.35;;
72354;SDS011;60314;55.040;73.076;2023-05-10T21:49:02;14.98;;;8.10;;
72354;SDS011;60314;55.040;73.076;2023-05-10T21:54:21;14.52;;;8.73;;
72354;SDS011;60314;55.040;73.076;2023-05-10T21:59:23;14.73;;;8.15;;
72354;SDS011;60314;55.040;73.076;2023-05-10T22:04:24;15.95;;;7.82;;
72354;SDS011;60314;55.040;73.076;2023-05-10T22:09:44;14.27;;;8.20;;
72354;SDS011;60314;55.040;73.076;2023-05-10T22:15:04;13.95;;;7.55;;
72354;SDS011;60314;55.040;73.076;2023-05-10T22:20:25;11.88;;;6.78;;
72354;SDS011;60314;55.040;73.076;2023-05-10T22:25:45;14.05;;;8.02;;
72354;SDS011;60314;55.040;73.076;2023-05-10T22:31:08;13.93;;;8.00;;
72354;SDS011;60314;55.040;73.076;2023-05-10T22:36:29;13.55;;;7.82;;
72354;SDS011;60314;55.040;73.076;2023-05-10T22:41:50;12.68;;;7.70;;
72354;SDS011;60314;55.040;73.076;2023-05-10T22:47:10;11.86;;;7.38;;
72354;SDS011;60314;55.040;73.076;2023-05-10T22:52:31;13.30;;;7.25;;
72354;SDS011;60314;55.040;73.076;2023-05-10T22:57:51;12.48;;;7.68;;
72354;SDS011;60314;55.040;73.076;2023-05-10T23:03:12;13.73;;;8.43;;
72354;SDS011;60314;55.040;73.076;2023-05-10T23:08:14;13.73;;;7.75;;
72354;SDS011;60314;55.040;73.076;2023-05-10T23:13:35;16.75;;;7.82;;
72354;SDS011;60314;55.040;73.076;2023-05-10T23:18:56;17.23;;;7.88;;
72354;SDS011;60314;55.040;73.076;2023-05-10T23:24:16;12.50;;;7.40;;
72354;SDS011;60314;55.040;73.076;2023-05-10T23:29:35;14.38;;;7.68;;
72354;SDS011;60314;55.040;73.076;2023-05-10T23:34:56;13.52;;;8.02;;
72354;SDS011;60314;55.040;73.076;2023-05-10T23:40:16;15.73;;;7.72;;
72354;SDS011;60314;55.040;73.076;2023-05-10T23:45:37;14.07;;;8.25;;
72354;SDS011;60314;55.040;73.076;2023-05-10T23:50:57;17.40;;;8.77;;
72354;SDS011;60314;55.040;73.076;2023-05-10T23:56:17;12.60;;;7.72;;
